sensor_id;sensor_type;location;lat;lon;timestamp;P1;durP1;ratioP1;P2;durP2;ratioP2
14748;SDS011;7466;53.574;9.976;2022-10-22T00:01:36;29.10;;;21.13;;
14748;SDS011;7466;53.574;9.976;2022-10-22T00:04:05;30.53;;;22.90;;
14748;SDS011;7466;53.574;9.976;2022-10-22T00:06:32;30.73;;;22.10;;
14748;SDS011;7466;53.574;9.976;2022-10-22T00:08:59;32.50;;;21.83;;
14748;SDS011;7466;53.574;9.976;2022-10-22T00:11:26;32.20;;;23.03;;
14748;SDS011;7466;53.574;9.976;2022-10-22T00:13:53;30.10;;;23.43;;
14748;SDS011;7466;53.574;9.976;2022-10-22T00:16:19;30.17;;;22.27;;
14748;SDS011;7466;53.574;9.976;2022-10-22T00:18:46;38.50;;;24.13;;
14748;SDS011;7466;53.574;9.976;2022-10-22T00:21:14;31.33;;;23.20;;
14748;SDS011;7466;53.574;9.976;2022-10-22T00:23:41;27.77;;;23.60;;
14748;SDS011;7466;53.574;9.976;2022-10-22T00:26:09;31.13;;;24.07;;
14748;SDS011;7466;53.574;9.976;2022-10-22T00:28:36;33.33;;;24.73;;
14748;SDS011;7466;53.574;9.976;2022-10-22T00:31:03;31.60;;;25.07;;
14748;SDS011;7466;53.574;9.976;2022-10-22T00:33:30;33.73;;;24.10;;
14748;SDS011;7466;53.574;9.976;2022-10-22T00:35:58;34.73;;;25.17;;
14748;SDS011;7466;53.574;9.976;2022-10-22T00:38:26;33.73;;;25.77;;
14748;SDS011;7466;53.574;9.976;2022-10-22T00:40:53;34.30;;;25.13;;
14748;SDS011;7466;53.574;9.976;2022-10-22T00:43:20;36.97;;;24.13;;
14748;SDS011;7466;53.574;9.976;2022-10-22T00:45:47;34.40;;;23.57;;
14748;SDS011;7466;53.574;9.976;2022-10-22T00:48:14;34.90;;;24.40;;
14748;SDS011;7466;53.574;9.976;2022-10-22T00:50:45;34.90;;;24.83;;
14748;SDS011;7466;53.574;9.976;2022-10-22T00:53:16;32.80;;;24.57;;
14748;SDS011;7466;53.574;9.976;2022-10-22T00:55:48;32.63;;;25.17;;
14748;SDS011;7466;53.574;9.976;2022-10-22T00:58:17;34.77;;;23.97;;
14748;SDS011;7466;53.574;9.976;2022-10-22T01:00:45;35.37;;;24.47;;
14748;SDS011;7466;53.574;9.976;2022-10-22T01:03:12;34.70;;;25.00;;
14748;SDS011;7466;53.574;9.976;2022-10-22T01:05:40;31.70;;;23.70;;
14748;SDS011;7466;53.574;9.976;2022-10-22T01:08:10;34.67;;;24.50;;
14748;SDS011;7466;53.574;9.976;2022-10-22T01:10:54;32.63;;;24.40;;
14748;SDS011;7466;53.574;9.976;2022-10-22T01:13:30;33.20;;;24.50;;
14748;SDS011;7466;53.574;9.976;2022-10-22T01:16:05;34.60;;;24.10;;
14748;SDS011;7466;53.574;9.976;2022-10-22T01:18:37;37.20;;;25.00;;
14748;SDS011;7466;53.574;9.976;2022-10-22T01:21:15;38.97;;;24.87;;
14748;SDS011;7466;53.574;9.976;2022-10-22T01:30:07;37.93;;;25.40;;
14748;SDS011;7466;53.574;9.976;2022-10-22T01:32:37;35.37;;;25.93;;
14748;SDS011;7466;53.574;9.976;2022-10-22T01:35:08;38.00;;;26.37;;
14748;SDS011;7466;53.574;9.976;2022-10-22T01:37:39;38.20;;;25.30;;
14748;SDS011;7466;53.574;9.976;2022-10-22T01:40:11;38.87;;;26.10;;
14748;SDS011;7466;53.574;9.976;2022-10-22T01:42:39;37.83;;;26.07;;
14748;SDS011;7466;53.574;9.976;2022-10-22T01:45:11;37.63;;;26.63;;
14748;SDS011;7466;53.574;9.976;2022-10-22T01:47:41;39.37;;;26.13;;
14748;SDS011;7466;53.574;9.976;2022-10-22T01:50:26;33.30;;;24.70;;
14748;SDS011;7466;53.574;9.976;2022-10-22T01:53:10;41.40;;;26.87;;
14748;SDS011;7466;53.574;9.976;2022-10-22T01:55:46;36.93;;;25.13;;
14748;SDS011;7466;53.574;9.976;2022-10-22T01:58:24;40.10;;;26.40;;
14748;SDS011;7466;53.574;9.976;2022-10-22T02:01:02;42.50;;;27.83;;
14748;SDS011;7466;53.574;9.976;2022-10-22T02:03:35;44.73;;;28.80;;
14748;SDS011;7466;53.574;9.976;2022-10-22T02:06:07;45.87;;;29.27;;
14748;SDS011;7466;53.574;9.976;2022-10-22T02:08:39;43.93;;;27.60;;
14748;SDS011;7466;53.574;9.976;2022-10-22T02:11:08;49.40;;;29.13;;
14748;SDS011;7466;53.574;9.976;2022-10-22T02:13:38;42.97;;;27.17;;
14748;SDS011;7466;53.574;9.976;2022-10-22T02:16:09;44.27;;;27.90;;
14748;SDS011;7466;53.574;9.976;2022-10-22T02:18:41;43.87;;;28.23;;
14748;SDS011;7466;53.574;9.976;2022-10-22T02:21:11;45.43;;;27.93;;
14748;SDS011;7466;53.574;9.976;2022-10-22T02:23:38;40.63;;;26.93;;
14748;SDS011;7466;53.574;9.976;2022-10-22T02:26:06;48.30;;;28.37;;
14748;SDS011;7466;53.574;9.976;2022-10-22T02:28:41;39.70;;;27.37;;
14748;SDS011;7466;53.574;9.976;2022-10-22T02:31:18;36.10;;;24.63;;
14748;SDS011;7466;53.574;9.976;2022-10-22T02:33:48;38.67;;;27.20;;
14748;SDS011;7466;53.574;9.976;2022-10-22T02:36:18;36.90;;;23.50;;
14748;SDS011;7466;53.574;9.976;2022-10-22T02:38:46;39.07;;;24.87;;
14748;SDS011;7466;53.574;9.976;2022-10-22T02:41:14;37.30;;;24.50;;
14748;SDS011;7466;53.574;9.976;2022-10-22T02:43:43;43.13;;;26.17;;
14748;SDS011;7466;53.574;9.976;2022-10-22T02:46:16;35.47;;;23.53;;
14748;SDS011;7466;53.574;9.976;2022-10-22T02:48:43;34.93;;;24.57;;
14748;SDS011;7466;53.574;9.976;2022-10-22T02:51:10;34.20;;;23.70;;
14748;SDS011;7466;53.574;9.976;2022-10-22T02:53:37;38.57;;;25.10;;
14748;SDS011;7466;53.574;9.976;2022-10-22T02:56:04;33.37;;;24.33;;
14748;SDS011;7466;53.574;9.976;2022-10-22T02:58:31;44.73;;;26.87;;
14748;SDS011;7466;53.574;9.976;2022-10-22T03:00:58;48.73;;;27.33;;
14748;SDS011;7466;53.574;9.976;2022-10-22T03:03:26;40.90;;;26.83;;
14748;SDS011;7466;53.574;9.976;2022-10-22T03:05:53;36.60;;;24.87;;
14748;SDS011;7466;53.574;9.976;2022-10-22T03:08:19;41.97;;;28.40;;
14748;SDS011;7466;53.574;9.976;2022-10-22T03:10:46;53.73;;;27.07;;
14748;SDS011;7466;53.574;9.976;2022-10-22T03:13:13;41.57;;;27.53;;
14748;SDS011;7466;53.574;9.976;2022-10-22T03:15:40;39.57;;;25.70;;
14748;SDS011;7466;53.574;9.976;2022-10-22T03:18:06;38.03;;;26.47;;
14748;SDS011;7466;53.574;9.976;2022-10-22T03:20:35;48.70;;;27.27;;
14748;SDS011;7466;53.574;9.976;2022-10-22T03:23:01;43.87;;;28.30;;
14748;SDS011;7466;53.574;9.976;2022-10-22T03:25:29;44.93;;;27.40;;
14748;SDS011;7466;53.574;9.976;2022-10-22T03:27:59;53.40;;;31.27;;
14748;SDS011;7466;53.574;9.976;2022-10-22T03:30:28;43.77;;;24.93;;
14748;SDS011;7466;53.574;9.976;2022-10-22T03:32:55;46.73;;;27.50;;
14748;SDS011;7466;53.574;9.976;2022-10-22T03:35:22;60.63;;;32.83;;
14748;SDS011;7466;53.574;9.976;2022-10-22T03:37:51;51.40;;;29.40;;
14748;SDS011;7466;53.574;9.976;2022-10-22T03:40:18;47.30;;;28.17;;
14748;SDS011;7466;53.574;9.976;2022-10-22T03:42:46;43.03;;;27.37;;
14748;SDS011;7466;53.574;9.976;2022-10-22T03:45:13;47.50;;;27.87;;
14748;SDS011;7466;53.574;9.976;2022-10-22T03:47:39;55.23;;;31.77;;
14748;SDS011;7466;53.574;9.976;2022-10-22T03:50:07;57.60;;;31.77;;
14748;SDS011;7466;53.574;9.976;2022-10-22T03:52:35;50.90;;;29.30;;
14748;SDS011;7466;53.574;9.976;2022-10-22T03:55:04;57.23;;;31.23;;
14748;SDS011;7466;53.574;9.976;2022-10-22T03:57:32;56.87;;;31.97;;
14748;SDS011;7466;53.574;9.976;2022-10-22T03:59:59;62.17;;;32.33;;
14748;SDS011;7466;53.574;9.976;2022-10-22T04:02:26;65.67;;;35.13;;
14748;SDS011;7466;53.574;9.976;2022-10-22T04:04:52;62.50;;;34.27;;
14748;SDS011;7466;53.574;9.976;2022-10-22T04:07:19;63.73;;;33.73;;
14748;SDS011;7466;53.574;9.976;2022-10-22T04:09:46;68.77;;;35.07;;
14748;SDS011;7466;53.574;9.976;2022-10-22T04:12:14;72.63;;;35.33;;
14748;SDS011;7466;53.574;9.976;2022-10-22T04:14:41;69.53;;;35.37;;
14748;SDS011;7466;53.574;9.976;2022-10-22T04:17:08;70.53;;;33.30;;
14748;SDS011;7466;53.574;9.976;2022-10-22T04:19:34;63.50;;;33.73;;
14748;SDS011;7466;53.574;9.976;2022-10-22T04:22:01;61.43;;;33.53;;
14748;SDS011;7466;53.574;9.976;2022-10-22T04:24:29;68.87;;;33.23;;
14748;SDS011;7466;53.574;9.976;2022-10-22T04:26:56;83.83;;;34.40;;
14748;SDS011;7466;53.574;9.976;2022-10-22T04:29:25;66.93;;;33.50;;
14748;SDS011;7466;53.574;9.976;2022-10-22T04:31:51;70.80;;;33.53;;
14748;SDS011;7466;53.574;9.976;2022-10-22T04:34:18;67.37;;;30.63;;
14748;SDS011;7466;53.574;9.976;2022-10-22T04:36:45;59.73;;;31.33;;
14748;SDS011;7466;53.574;9.976;2022-10-22T04:39:13;54.20;;;29.23;;
14748;SDS011;7466;53.574;9.976;2022-10-22T04:41:40;53.53;;;30.80;;
14748;SDS011;7466;53.574;9.976;2022-10-22T04:44:07;56.80;;;29.03;;
14748;SDS011;7466;53.574;9.976;2022-10-22T04:46:35;50.50;;;27.97;;
14748;SDS011;7466;53.574;9.976;2022-10-22T04:49:02;47.77;;;27.67;;
14748;SDS011;7466;53.574;9.976;2022-10-22T04:51:29;50.50;;;28.23;;
14748;SDS011;7466;53.574;9.976;2022-10-22T04:53:57;44.57;;;27.23;;
14748;SDS011;7466;53.574;9.976;2022-10-22T04:56:24;52.33;;;29.00;;
14748;SDS011;7466;53.574;9.976;2022-10-22T04:58:53;50.47;;;28.77;;
14748;SDS011;7466;53.574;9.976;2022-10-22T05:01:21;67.00;;;32.73;;
14748;SDS011;7466;53.574;9.976;2022-10-22T05:03:51;72.77;;;32.53;;
14748;SDS011;7466;53.574;9.976;2022-10-22T05:06:20;60.90;;;32.80;;
14748;SDS011;7466;53.574;9.976;2022-10-22T05:08:47;60.43;;;31.87;;
14748;SDS011;7466;53.574;9.976;2022-10-22T05:11:19;48.07;;;28.03;;
14748;SDS011;7466;53.574;9.976;2022-10-22T05:13:47;56.30;;;29.83;;
14748;SDS011;7466;53.574;9.976;2022-10-22T05:16:13;56.73;;;30.60;;
14748;SDS011;7466;53.574;9.976;2022-10-22T05:18:41;63.27;;;33.63;;
14748;SDS011;7466;53.574;9.976;2022-10-22T05:21:11;66.10;;;33.47;;
14748;SDS011;7466;53.574;9.976;2022-10-22T05:23:40;51.57;;;30.60;;
14748;SDS011;7466;53.574;9.976;2022-10-22T05:26:08;62.93;;;32.60;;
14748;SDS011;7466;53.574;9.976;2022-10-22T05:28:36;65.30;;;33.77;;
14748;SDS011;7466;53.574;9.976;2022-10-22T05:31:03;58.73;;;31.07;;
14748;SDS011;7466;53.574;9.976;2022-10-22T05:33:31;54.40;;;31.60;;
14748;SDS011;7466;53.574;9.976;2022-10-22T05:35:59;63.70;;;32.70;;
14748;SDS011;7466;53.574;9.976;2022-10-22T05:38:28;59.70;;;31.70;;
14748;SDS011;7466;53.574;9.976;2022-10-22T05:40:58;54.40;;;29.10;;
14748;SDS011;7466;53.574;9.976;2022-10-22T05:43:25;61.57;;;30.67;;
14748;SDS011;7466;53.574;9.976;2022-10-22T05:45:52;64.73;;;32.10;;
14748;SDS011;7466;53.574;9.976;2022-10-22T05:48:20;65.97;;;33.33;;
14748;SDS011;7466;53.574;9.976;2022-10-22T05:50:47;74.63;;;36.53;;
14748;SDS011;7466;53.574;9.976;2022-10-22T05:53:14;74.90;;;36.47;;
14748;SDS011;7466;53.574;9.976;2022-10-22T05:55:43;69.33;;;34.53;;
14748;SDS011;7466;53.574;9.976;2022-10-22T05:58:10;61.43;;;32.00;;
14748;SDS011;7466;53.574;9.976;2022-10-22T06:00:38;60.37;;;32.73;;
14748;SDS011;7466;53.574;9.976;2022-10-22T06:03:05;60.60;;;32.33;;
14748;SDS011;7466;53.574;9.976;2022-10-22T06:05:33;60.97;;;31.70;;
14748;SDS011;7466;53.574;9.976;2022-10-22T06:08:00;63.20;;;31.37;;
14748;SDS011;7466;53.574;9.976;2022-10-22T06:10:28;76.73;;;34.67;;
14748;SDS011;7466;53.574;9.976;2022-10-22T06:12:56;75.07;;;34.37;;
14748;SDS011;7466;53.574;9.976;2022-10-22T06:15:25;49.53;;;28.60;;
14748;SDS011;7466;53.574;9.976;2022-10-22T06:17:52;65.33;;;32.83;;
14748;SDS011;7466;53.574;9.976;2022-10-22T06:20:19;57.40;;;31.87;;
14748;SDS011;7466;53.574;9.976;2022-10-22T06:22:46;67.23;;;31.13;;
14748;SDS011;7466;53.574;9.976;2022-10-22T06:25:13;52.97;;;31.80;;
14748;SDS011;7466;53.574;9.976;2022-10-22T06:27:40;55.03;;;29.90;;
14748;SDS011;7466;53.574;9.976;2022-10-22T06:30:08;51.67;;;29.20;;
14748;SDS011;7466;53.574;9.976;2022-10-22T06:32:36;55.57;;;30.30;;
14748;SDS011;7466;53.574;9.976;2022-10-22T06:35:03;50.43;;;28.10;;
14748;SDS011;7466;53.574;9.976;2022-10-22T06:37:30;52.67;;;29.47;;
14748;SDS011;7466;53.574;9.976;2022-10-22T06:39:57;50.87;;;30.63;;
14748;SDS011;7466;53.574;9.976;2022-10-22T06:42:24;55.60;;;31.03;;
14748;SDS011;7466;53.574;9.976;2022-10-22T06:44:50;51.73;;;29.97;;
14748;SDS011;7466;53.574;9.976;2022-10-22T06:47:18;49.67;;;29.47;;
14748;SDS011;7466;53.574;9.976;2022-10-22T06:49:45;59.07;;;30.43;;
14748;SDS011;7466;53.574;9.976;2022-10-22T06:52:14;61.07;;;31.53;;
14748;SDS011;7466;53.574;9.976;2022-10-22T06:54:41;58.03;;;32.27;;
14748;SDS011;7466;53.574;9.976;2022-10-22T06:57:08;55.80;;;30.77;;
14748;SDS011;7466;53.574;9.976;2022-10-22T06:59:35;56.13;;;30.93;;
14748;SDS011;7466;53.574;9.976;2022-10-22T07:02:02;65.97;;;32.60;;
14748;SDS011;7466;53.574;9.976;2022-10-22T07:04:30;50.27;;;29.37;;
14748;SDS011;7466;53.574;9.976;2022-10-22T07:06:57;55.73;;;30.87;;
14748;SDS011;7466;53.574;9.976;2022-10-22T07:09:24;53.87;;;29.93;;
14748;SDS011;7466;53.574;9.976;2022-10-22T07:11:51;55.40;;;29.57;;
14748;SDS011;7466;53.574;9.976;2022-10-22T07:14:17;51.97;;;30.07;;
14748;SDS011;7466;53.574;9.976;2022-10-22T07:16:44;51.93;;;30.70;;
14748;SDS011;7466;53.574;9.976;2022-10-22T07:19:11;67.60;;;32.13;;
14748;SDS011;7466;53.574;9.976;2022-10-22T07:21:40;53.33;;;29.03;;
14748;SDS011;7466;53.574;9.976;2022-10-22T07:24:07;46.90;;;27.53;;
14748;SDS011;7466;53.574;9.976;2022-10-22T07:26:34;47.67;;;27.70;;
14748;SDS011;7466;53.574;9.976;2022-10-22T07:29:01;48.03;;;28.70;;
14748;SDS011;7466;53.574;9.976;2022-10-22T07:31:29;47.33;;;27.97;;
14748;SDS011;7466;53.574;9.976;2022-10-22T07:33:56;47.57;;;28.80;;
14748;SDS011;7466;53.574;9.976;2022-10-22T07:36:23;47.63;;;29.13;;
14748;SDS011;7466;53.574;9.976;2022-10-22T07:38:54;41.57;;;27.50;;
14748;SDS011;7466;53.574;9.976;2022-10-22T07:41:22;40.27;;;26.20;;
14748;SDS011;7466;53.574;9.976;2022-10-22T07:43:49;44.90;;;28.13;;
14748;SDS011;7466;53.574;9.976;2022-10-22T07:46:16;43.27;;;26.27;;
14748;SDS011;7466;53.574;9.976;2022-10-22T07:48:43;38.97;;;24.90;;
14748;SDS011;7466;53.574;9.976;2022-10-22T07:51:10;39.00;;;25.93;;
14748;SDS011;7466;53.574;9.976;2022-10-22T07:53:38;39.93;;;26.20;;
14748;SDS011;7466;53.574;9.976;2022-10-22T07:56:06;30.53;;;23.83;;
14748;SDS011;7466;53.574;9.976;2022-10-22T07:58:33;33.80;;;25.40;;
14748;SDS011;7466;53.574;9.976;2022-10-22T08:01:00;32.57;;;23.73;;
14748;SDS011;7466;53.574;9.976;2022-10-22T08:03:29;35.00;;;23.20;;
14748;SDS011;7466;53.574;9.976;2022-10-22T08:05:57;36.57;;;23.90;;
14748;SDS011;7466;53.574;9.976;2022-10-22T08:08:25;30.00;;;23.07;;
14748;SDS011;7466;53.574;9.976;2022-10-22T08:10:54;32.53;;;23.50;;
14748;SDS011;7466;53.574;9.976;2022-10-22T08:13:24;25.57;;;20.33;;
14748;SDS011;7466;53.574;9.976;2022-10-22T08:15:51;26.67;;;19.20;;
14748;SDS011;7466;53.574;9.976;2022-10-22T08:18:18;21.10;;;18.37;;
14748;SDS011;7466;53.574;9.976;2022-10-22T08:20:45;19.57;;;15.70;;
14748;SDS011;7466;53.574;9.976;2022-10-22T08:23:11;18.10;;;13.73;;
14748;SDS011;7466;53.574;9.976;2022-10-22T08:25:38;19.23;;;15.00;;
14748;SDS011;7466;53.574;9.976;2022-10-22T08:28:05;20.47;;;14.87;;
14748;SDS011;7466;53.574;9.976;2022-10-22T08:30:33;17.40;;;13.30;;
14748;SDS011;7466;53.574;9.976;2022-10-22T08:33:02;16.47;;;12.83;;
14748;SDS011;7466;53.574;9.976;2022-10-22T08:35:29;15.80;;;12.70;;
14748;SDS011;7466;53.574;9.976;2022-10-22T08:37:56;13.70;;;11.90;;
14748;SDS011;7466;53.574;9.976;2022-10-22T08:40:25;13.87;;;11.90;;
14748;SDS011;7466;53.574;9.976;2022-10-22T08:43:04;14.13;;;12.63;;
14748;SDS011;7466;53.574;9.976;2022-10-22T08:45:59;14.13;;;11.87;;
14748;SDS011;7466;53.574;9.976;2022-10-22T08:48:39;13.07;;;11.87;;
14748;SDS011;7466;53.574;9.976;2022-10-22T08:51:11;17.10;;;11.23;;
14748;SDS011;7466;53.574;9.976;2022-10-22T08:53:42;12.63;;;11.20;;
14748;SDS011;7466;53.574;9.976;2022-10-22T08:56:18;10.93;;;9.80;;
14748;SDS011;7466;53.574;9.976;2022-10-22T08:58:48;12.97;;;10.13;;
14748;SDS011;7466;53.574;9.976;2022-10-22T09:01:23;10.57;;;9.50;;
14748;SDS011;7466;53.574;9.976;2022-10-22T09:03:59;11.50;;;9.53;;
14748;SDS011;7466;53.574;9.976;2022-10-22T09:06:31;10.83;;;9.63;;
14748;SDS011;7466;53.574;9.976;2022-10-22T09:09:00;10.27;;;9.20;;
14748;SDS011;7466;53.574;9.976;2022-10-22T09:11:35;11.10;;;8.77;;
14748;SDS011;7466;53.574;9.976;2022-10-22T09:14:03;11.50;;;9.40;;
14748;SDS011;7466;53.574;9.976;2022-10-22T09:16:35;10.40;;;8.97;;
14748;SDS011;7466;53.574;9.976;2022-10-22T09:19:08;10.93;;;8.57;;
14748;SDS011;7466;53.574;9.976;2022-10-22T09:21:45;9.37;;;8.30;;
14748;SDS011;7466;53.574;9.976;2022-10-22T09:24:23;12.50;;;8.43;;
14748;SDS011;7466;53.574;9.976;2022-10-22T09:26:57;8.83;;;7.93;;
14748;SDS011;7466;53.574;9.976;2022-10-22T09:29:28;11.87;;;8.50;;
14748;SDS011;7466;53.574;9.976;2022-10-22T09:31:59;8.77;;;7.50;;
14748;SDS011;7466;53.574;9.976;2022-10-22T09:34:27;10.37;;;7.53;;
14748;SDS011;7466;53.574;9.976;2022-10-22T09:36:57;11.63;;;7.73;;
14748;SDS011;7466;53.574;9.976;2022-10-22T09:39:26;12.97;;;7.77;;
14748;SDS011;7466;53.574;9.976;2022-10-22T09:41:53;11.07;;;7.70;;
14748;SDS011;7466;53.574;9.976;2022-10-22T09:44:20;14.57;;;7.87;;
14748;SDS011;7466;53.574;9.976;2022-10-22T09:46:47;12.23;;;7.27;;
14748;SDS011;7466;53.574;9.976;2022-10-22T09:49:16;8.53;;;7.43;;
14748;SDS011;7466;53.574;9.976;2022-10-22T09:51:50;10.97;;;6.97;;
14748;SDS011;7466;53.574;9.976;2022-10-22T09:54:19;12.53;;;7.30;;
14748;SDS011;7466;53.574;9.976;2022-10-22T09:56:50;15.00;;;6.33;;
14748;SDS011;7466;53.574;9.976;2022-10-22T09:59:28;15.67;;;6.90;;
14748;SDS011;7466;53.574;9.976;2022-10-22T10:02:01;9.93;;;6.10;;
14748;SDS011;7466;53.574;9.976;2022-10-22T10:04:35;8.03;;;6.00;;
14748;SDS011;7466;53.574;9.976;2022-10-22T10:07:13;10.10;;;6.57;;
14748;SDS011;7466;53.574;9.976;2022-10-22T10:09:41;7.37;;;5.70;;
14748;SDS011;7466;53.574;9.976;2022-10-22T10:12:11;10.17;;;5.83;;
14748;SDS011;7466;53.574;9.976;2022-10-22T10:14:47;10.63;;;5.60;;
14748;SDS011;7466;53.574;9.976;2022-10-22T10:17:24;11.17;;;5.70;;
14748;SDS011;7466;53.574;9.976;2022-10-22T10:20:02;7.37;;;5.70;;
14748;SDS011;7466;53.574;9.976;2022-10-22T10:22:45;7.77;;;4.93;;
14748;SDS011;7466;53.574;9.976;2022-10-22T10:25:30;13.37;;;5.20;;
14748;SDS011;7466;53.574;9.976;2022-10-22T10:28:08;8.37;;;4.90;;
14748;SDS011;7466;53.574;9.976;2022-10-22T10:30:45;12.33;;;4.77;;
14748;SDS011;7466;53.574;9.976;2022-10-22T10:33:22;5.87;;;3.90;;
14748;SDS011;7466;53.574;9.976;2022-10-22T10:36:03;11.90;;;4.70;;
14748;SDS011;7466;53.574;9.976;2022-10-22T10:38:41;7.57;;;4.77;;
14748;SDS011;7466;53.574;9.976;2022-10-22T10:41:18;12.18;;;4.38;;
14748;SDS011;7466;53.574;9.976;2022-10-22T10:43:59;7.30;;;3.63;;
14748;SDS011;7466;53.574;9.976;2022-10-22T10:46:42;8.57;;;3.33;;
14748;SDS011;7466;53.574;9.976;2022-10-22T10:49:15;7.65;;;3.83;;
14748;SDS011;7466;53.574;9.976;2022-10-22T10:51:48;8.77;;;3.67;;
14748;SDS011;7466;53.574;9.976;2022-10-22T10:54:30;8.65;;;4.00;;
14748;SDS011;7466;53.574;9.976;2022-10-22T10:57:08;8.80;;;3.58;;
14748;SDS011;7466;53.574;9.976;2022-10-22T10:59:48;8.95;;;3.42;;
14748;SDS011;7466;53.574;9.976;2022-10-22T11:02:38;5.13;;;3.40;;
14748;SDS011;7466;53.574;9.976;2022-10-22T11:05:26;7.03;;;3.13;;
14748;SDS011;7466;53.574;9.976;2022-10-22T11:08:00;6.10;;;2.88;;
14748;SDS011;7466;53.574;9.976;2022-10-22T11:10:31;8.15;;;3.28;;
14748;SDS011;7466;53.574;9.976;2022-10-22T11:13:04;5.13;;;3.03;;
14748;SDS011;7466;53.574;9.976;2022-10-22T11:15:36;6.40;;;2.90;;
14748;SDS011;7466;53.574;9.976;2022-10-22T11:18:09;6.70;;;2.95;;
14748;SDS011;7466;53.574;9.976;2022-10-22T11:20:47;7.93;;;2.95;;
14748;SDS011;7466;53.574;9.976;2022-10-22T11:23:22;6.22;;;3.08;;
14748;SDS011;7466;53.574;9.976;2022-10-22T11:25:53;6.05;;;3.00;;
14748;SDS011;7466;53.574;9.976;2022-10-22T11:28:22;8.00;;;2.90;;
14748;SDS011;7466;53.574;9.976;2022-10-22T11:30:56;3.45;;;2.65;;
14748;SDS011;7466;53.574;9.976;2022-10-22T11:33:27;6.85;;;3.17;;
14748;SDS011;7466;53.574;9.976;2022-10-22T11:36:03;5.88;;;3.33;;
14748;SDS011;7466;53.574;9.976;2022-10-22T11:38:32;6.85;;;3.53;;
14748;SDS011;7466;53.574;9.976;2022-10-22T11:41:01;10.77;;;3.58;;
14748;SDS011;7466;53.574;9.976;2022-10-22T11:43:32;10.20;;;2.83;;
14748;SDS011;7466;53.574;9.976;2022-10-22T11:46:01;7.32;;;3.38;;
14748;SDS011;7466;53.574;9.976;2022-10-22T11:48:35;6.72;;;2.78;;
14748;SDS011;7466;53.574;9.976;2022-10-22T11:51:03;4.05;;;3.42;;
14748;SDS011;7466;53.574;9.976;2022-10-22T11:53:56;9.52;;;3.28;;
14748;SDS011;7466;53.574;9.976;2022-10-22T11:56:24;8.38;;;3.45;;
14748;SDS011;7466;53.574;9.976;2022-10-22T11:58:53;6.32;;;3.90;;
14748;SDS011;7466;53.574;9.976;2022-10-22T12:01:21;7.95;;;3.40;;
14748;SDS011;7466;53.574;9.976;2022-10-22T12:03:50;8.02;;;3.38;;
14748;SDS011;7466;53.574;9.976;2022-10-22T12:06:20;10.35;;;3.40;;
14748;SDS011;7466;53.574;9.976;2022-10-22T12:08:53;8.02;;;4.07;;
14748;SDS011;7466;53.574;9.976;2022-10-22T12:11:25;3.78;;;3.25;;
14748;SDS011;7466;53.574;9.976;2022-10-22T12:13:56;6.20;;;3.25;;
14748;SDS011;7466;53.574;9.976;2022-10-22T12:16:28;6.18;;;3.10;;
14748;SDS011;7466;53.574;9.976;2022-10-22T12:19:02;5.88;;;2.90;;
14748;SDS011;7466;53.574;9.976;2022-10-22T12:21:37;6.35;;;2.88;;
14748;SDS011;7466;53.574;9.976;2022-10-22T12:24:06;6.80;;;3.20;;
14748;SDS011;7466;53.574;9.976;2022-10-22T12:26:39;4.78;;;3.13;;
14748;SDS011;7466;53.574;9.976;2022-10-22T12:29:09;7.05;;;4.05;;
14748;SDS011;7466;53.574;9.976;2022-10-22T12:31:38;5.85;;;3.80;;
14748;SDS011;7466;53.574;9.976;2022-10-22T12:34:06;7.73;;;4.20;;
14748;SDS011;7466;53.574;9.976;2022-10-22T12:36:38;6.55;;;3.85;;
14748;SDS011;7466;53.574;9.976;2022-10-22T12:39:10;6.50;;;3.97;;
14748;SDS011;7466;53.574;9.976;2022-10-22T12:41:38;7.70;;;4.03;;
14748;SDS011;7466;53.574;9.976;2022-10-22T12:44:06;7.23;;;3.33;;
14748;SDS011;7466;53.574;9.976;2022-10-22T12:46:36;6.37;;;3.93;;
14748;SDS011;7466;53.574;9.976;2022-10-22T12:49:04;8.03;;;4.03;;
14748;SDS011;7466;53.574;9.976;2022-10-22T12:51:35;6.47;;;3.90;;
14748;SDS011;7466;53.574;9.976;2022-10-22T12:54:05;7.93;;;4.20;;
14748;SDS011;7466;53.574;9.976;2022-10-22T12:56:35;7.77;;;3.73;;
14748;SDS011;7466;53.574;9.976;2022-10-22T12:59:04;11.80;;;4.00;;
14748;SDS011;7466;53.574;9.976;2022-10-22T13:01:36;7.37;;;3.87;;
14748;SDS011;7466;53.574;9.976;2022-10-22T13:04:06;6.47;;;3.77;;
14748;SDS011;7466;53.574;9.976;2022-10-22T13:09:46;6.80;;;3.67;;
14748;SDS011;7466;53.574;9.976;2022-10-22T13:12:24;5.67;;;3.77;;
14748;SDS011;7466;53.574;9.976;2022-10-22T13:14:51;12.10;;;4.10;;
14748;SDS011;7466;53.574;9.976;2022-10-22T13:17:19;7.90;;;4.27;;
14748;SDS011;7466;53.574;9.976;2022-10-22T13:20:04;11.37;;;4.20;;
14748;SDS011;7466;53.574;9.976;2022-10-22T13:22:41;6.43;;;3.73;;
14748;SDS011;7466;53.574;9.976;2022-10-22T13:25:20;7.63;;;3.40;;
14748;SDS011;7466;53.574;9.976;2022-10-22T13:27:51;10.00;;;4.30;;
14748;SDS011;7466;53.574;9.976;2022-10-22T13:30:21;5.37;;;3.30;;
14748;SDS011;7466;53.574;9.976;2022-10-22T13:32:49;10.83;;;3.50;;
14748;SDS011;7466;53.574;9.976;2022-10-22T13:35:19;6.63;;;3.30;;
14748;SDS011;7466;53.574;9.976;2022-10-22T13:37:49;5.93;;;3.50;;
14748;SDS011;7466;53.574;9.976;2022-10-22T13:40:16;10.73;;;3.50;;
14748;SDS011;7466;53.574;9.976;2022-10-22T13:42:43;7.23;;;3.30;;
14748;SDS011;7466;53.574;9.976;2022-10-22T13:45:12;7.90;;;3.07;;
14748;SDS011;7466;53.574;9.976;2022-10-22T13:47:39;7.33;;;3.00;;
14748;SDS011;7466;53.574;9.976;2022-10-22T13:50:10;12.10;;;3.40;;
14748;SDS011;7466;53.574;9.976;2022-10-22T13:52:39;4.47;;;2.73;;
14748;SDS011;7466;53.574;9.976;2022-10-22T13:55:12;6.30;;;2.80;;
14748;SDS011;7466;53.574;9.976;2022-10-22T13:57:43;6.53;;;2.97;;
14748;SDS011;7466;53.574;9.976;2022-10-22T14:00:13;9.70;;;3.37;;
14748;SDS011;7466;53.574;9.976;2022-10-22T14:02:42;8.80;;;3.27;;
14748;SDS011;7466;53.574;9.976;2022-10-22T14:05:11;6.47;;;3.30;;
14748;SDS011;7466;53.574;9.976;2022-10-22T14:07:38;6.93;;;3.67;;
14748;SDS011;7466;53.574;9.976;2022-10-22T14:10:11;7.93;;;3.20;;
14748;SDS011;7466;53.574;9.976;2022-10-22T14:12:40;8.07;;;3.37;;
14748;SDS011;7466;53.574;9.976;2022-10-22T14:15:07;9.37;;;3.93;;
14748;SDS011;7466;53.574;9.976;2022-10-22T14:17:38;6.57;;;2.70;;
14748;SDS011;7466;53.574;9.976;2022-10-22T14:20:08;7.67;;;3.20;;
14748;SDS011;7466;53.574;9.976;2022-10-22T14:22:40;8.50;;;3.50;;
14748;SDS011;7466;53.574;9.976;2022-10-22T14:25:08;9.40;;;3.20;;
14748;SDS011;7466;53.574;9.976;2022-10-22T14:27:37;7.50;;;2.93;;
14748;SDS011;7466;53.574;9.976;2022-10-22T14:30:04;9.70;;;3.40;;
14748;SDS011;7466;53.574;9.976;2022-10-22T14:32:32;6.73;;;3.10;;
14748;SDS011;7466;53.574;9.976;2022-10-22T14:35:00;5.97;;;3.03;;
14748;SDS011;7466;53.574;9.976;2022-10-22T14:37:27;8.37;;;3.30;;
14748;SDS011;7466;53.574;9.976;2022-10-22T14:39:54;6.97;;;3.20;;
14748;SDS011;7466;53.574;9.976;2022-10-22T14:42:25;7.43;;;3.53;;
14748;SDS011;7466;53.574;9.976;2022-10-22T14:44:53;9.50;;;3.20;;
14748;SDS011;7466;53.574;9.976;2022-10-22T14:47:19;6.93;;;3.00;;
14748;SDS011;7466;53.574;9.976;2022-10-22T14:49:46;6.37;;;2.83;;
14748;SDS011;7466;53.574;9.976;2022-10-22T14:52:14;7.10;;;3.20;;
14748;SDS011;7466;53.574;9.976;2022-10-22T14:54:41;8.23;;;3.30;;
14748;SDS011;7466;53.574;9.976;2022-10-22T14:57:09;6.40;;;3.30;;
14748;SDS011;7466;53.574;9.976;2022-10-22T14:59:38;9.00;;;3.23;;
14748;SDS011;7466;53.574;9.976;2022-10-22T15:02:05;6.77;;;2.77;;
14748;SDS011;7466;53.574;9.976;2022-10-22T15:04:34;10.97;;;3.27;;
14748;SDS011;7466;53.574;9.976;2022-10-22T15:07:01;6.87;;;3.07;;
14748;SDS011;7466;53.574;9.976;2022-10-22T15:09:29;6.27;;;3.40;;